Time;durP1;ratioP1;P1;durP2;ratioP2;P2;SDS_P1;SDS_P2;PMS_P1;PMS_P2;Temp;Humidity;BMP_temperature;BMP_pressure;BME280_temperature;BME280_humidity;BME280_pressure;Samples;Min_cycle;Max_cycle;Signal;HPM_P1;HPM_P2
2021/01/27 08:36:59;;;;;;;38.75;24.67;;;76.90;2150.40;;;;;;4823178;29;20058;-80
2021/01/27 08:39:53;;;;;;;35.60;22.35;;;76.90;2150.40;;;;;;4810201;29;20066;-80
2021/01/27 08:43:13;;;;;;;39.30;26.67;;;77.00;2124.80;;;;;;4768299;30;20037;-80
2021/01/27 08:46:20;;;;;;;43.15;28.75;;;77.10;2099.20;;;;;;4737951;30;20530;-79
2021/01/27 08:49:23;;;;;;;34.17;22.13;;;77.20;2124.80;;;;;;4723276;30;20074;-79
2021/01/27 08:51:50;;;;;;;34.05;23.50;;;77.20;2099.20;;;;;;4734174;30;20108;-78
2021/01/27 08:54:37;;;;;;;34.17;22.85;;;77.30;2048.00;;;;;;4734169;30;20190;-79
2021/01/27 08:57:36;;;;;;;41.78;26.55;;;77.30;2022.40;;;;;;4725216;30;20041;-76
2021/01/27 09:00:33;;;;;;;36.85;24.55;;;77.50;2022.40;;;;;;4735008;30;20131;-77
2021/01/27 09:03:02;;;;;;;40.03;25.13;;;77.60;1996.80;;;;;;4722745;30;20052;-77
2021/01/27 09:05:28;;;;;;;30.85;20.42;;;102.50;1945.60;;;;;;4737635;30;20540;-78
2021/01/27 09:08:19;;;;;;;30.90;21.40;;;102.70;1920.00;;;;;;4725164;30;20037;-79
2021/01/27 09:10:52;;;;;;;31.02;21.33;;;102.70;1894.40;;;;;;4743189;30;20028;-78
2021/01/27 09:13:50;;;;;;;38.90;24.10;;;102.90;1868.80;;;;;;4726388;30;20048;-78
2021/01/27 09:16:15;;;;;;;;;;;103.10;1843.20;;;;;;4706221;30;20094;-77
2021/01/27 09:19:09;;;;;;;32.47;21.97;;;103.10;1817.60;;;;;;4690647;30;19943;-78
2021/01/27 09:21:41;;;;;;;31.88;21.67;;;128.00;1843.20;;;;;;4721749;30;20040;-78
2021/01/27 09:25:00;;;;;;;38.63;21.85;;;128.10;1817.60;;;;;;4779086;30;20043;-77
2021/01/27 09:27:35;;;;;;;32.92;21.58;;;128.00;1817.60;;;;;;4786869;30;20048;-78
2021/01/27 09:30:13;;;;;;;44.22;23.73;;;128.10;1817.60;;;;;;4781421;30;20058;-78
2021/01/27 09:32:40;;;;;;;35.28;22.40;;;128.10;1817.60;;;;;;4771441;30;20424;-76
2021/01/27 09:35:15;;;;;;;39.20;23.23;;;103.30;1817.60;;;;;;4754453;30;20110;-76
2021/01/27 09:37:49;;;;;;;34.53;22.33;;;103.10;1843.20;;;;;;4754210;30;20094;-76
2021/01/27 09:40:29;;;;;;;30.83;21.38;;;103.30;1792.00;;;;;;4755061;30;20028;-78
2021/01/27 09:43:00;;;;;;;32.78;21.88;;;128.10;1792.00;;;;;;4772379;30;20035;-78
2021/01/27 09:45:30;;;;;;;25.15;18.48;;;128.50;1740.80;;;;;;4771693;30;20373;-78
2021/01/27 09:48:00;;;;;;;28.08;19.52;;;128.60;1715.20;;;;;;4757476;30;20028;-78
2021/01/27 09:50:28;;;;;;;40.97;20.02;;;128.20;1740.80;;;;;;4762176;30;20059;-77
2021/01/27 09:52:59;;;;;;;30.90;19.42;;;128.00;1766.40;;;;;;4778167;29;20089;-76
2021/01/27 09:55:28;;;;;;;24.85;18.35;;;103.00;1766.40;;;;;;4805050;29;20024;-77
2021/01/27 09:57:55;;;;;;;33.10;21.65;;;102.90;1766.40;;;;;;4796959;29;20068;-78
2021/01/27 10:00:34;;;;;;;25.67;19.60;;;102.70;1792.00;;;;;;4784496;29;20065;-78
2021/01/27 10:03:36;;;;;;;34.60;23.00;;;102.60;1817.60;;;;;;4804456;29;20157;-79
2021/01/27 10:06:31;;;;;;;33.88;23.10;;;103.30;1792.00;;;;;;4814050;29;20399;-78
2021/01/27 10:09:22;;;;;;;29.98;20.67;;;102.80;1792.00;;;;;;4771848;30;20430;-79
2021/01/27 10:12:19;;;;;;;29.25;19.98;;;103.20;1740.80;;;;;;4758714;30;20036;-79
2021/01/27 10:14:47;;;;;;;38.40;24.75;;;128.40;1689.60;;;;;;4720366;30;20050;-78
2021/01/27 10:17:32;;;;;;;30.65;20.92;;;153.80;1664.00;;;;;;4730166;30;20041;-79
2021/01/27 10:20:26;;;;;;;23.08;17.73;;;154.00;1612.80;;;;;;4673366;30;20043;-76
2021/01/27 10:22:58;;;;;;;26.90;20.00;;;128.90;1612.80;;;;;;4661688;30;20077;-77
2021/01/27 10:25:44;;;;;;;32.72;21.90;;;128.20;1689.60;;;;;;4649464;30;20042;-77
2021/01/27 10:28:10;;;;;;;;;;;128.30;1689.60;;;;;;4658930;30;20090;-77
2021/01/27 10:31:07;;;;;;;31.07;20.43;;;153.60;1612.80;;;;;;4670275;30;19912;-79
2021/01/27 10:33:48;;;;;;;27.02;19.13;;;153.90;1612.80;;;;;;4674647;30;20047;-78
2021/01/27 10:36:46;;;;;;;25.40;17.85;;;128.80;1638.40;;;;;;4685490;30;20061;-78
2021/01/27 10:39:33;;;;;;;28.60;20.23;;;128.70;1638.40;;;;;;4699304;30;20522;-79
2021/01/27 10:42:27;;;;;;;;;;;128.20;1664.00;;;;;;4698773;30;20037;-79
2021/01/27 10:45:25;;;;;;;29.05;20.10;;;128.40;1689.60;;;;;;4659873;30;20389;-78
2021/01/27 10:48:31;;;;;;;22.38;17.50;;;154.20;1612.80;;;;;;4637975;30;20039;-78
2021/01/27 10:51:19;;;;;;;33.35;18.63;;;179.30;1510.40;;;;;;4647991;30;20201;-78
2021/01/27 10:53:45;;;;;;;35.15;19.90;;;179.40;1536.00;;;;;;4637227;30;20156;-76
2021/01/27 10:56:13;;;;;;;32.78;20.42;;;179.50;1510.40;;;;;;4637861;30;20621;-77
2021/01/27 10:58:39;;;;;;;30.08;18.90;;;154.00;1561.60;;;;;;4656929;30;20026;-78
2021/01/27 11:01:04;;;;;;;29.23;21.20;;;154.40;1536.00;;;;;;4656231;30;20039;-78
2021/01/27 11:03:33;;;;;;;25.38;17.85;;;179.60;1484.80;;;;;;4691550;30;20057;-77
2021/01/27 11:06:02;;;;;;;33.13;21.70;;;179.70;1459.20;;;;;;4707190;30;20037;-78
2021/01/27 11:08:30;;;;;;;44.05;26.98;;;179.30;1510.40;;;;;;4721703;30;20115;-77
2021/01/27 11:10:59;;;;;;;33.78;22.10;;;154.20;1536.00;;;;;;4720257;30;20053;-78
2021/01/27 11:13:25;;;;;;;32.70;18.92;;;153.70;1612.80;;;;;;4705206;30;20037;-78
2021/01/27 11:15:51;;;;;;;31.00;20.08;;;128.80;1587.20;;;;;;4707420;30;20518;-78
2021/01/27 11:18:18;;;;;;;32.10;20.23;;;128.90;1587.20;;;;;;4709219;30;20091;-76
2021/01/27 11:20:47;;;;;;;31.40;20.50;;;128.40;1638.40;;;;;;4717763;30;20107;-79
2021/01/27 11:23:48;;;;;;;25.10;18.60;;;128.40;1664.00;;;;;;4769708;30;20055;-79
2021/01/27 11:26:32;;;;;;;32.05;20.90;;;128.20;1689.60;;;;;;4742751;30;20028;-79
2021/01/27 11:29:06;;;;;;;26.40;19.38;;;128.20;1715.20;;;;;;4801728;29;20072;-79
2021/01/27 11:31:32;;;;;;;41.53;18.85;;;128.10;1689.60;;;;;;4810133;29;20055;-78
2021/01/27 11:34:07;;;;;;;34.45;22.58;;;128.20;1689.60;;;;;;4839824;29;20045;-78
2021/01/27 11:36:33;;;;;;;31.15;19.70;;;128.90;1612.80;;;;;;4824753;29;20080;-79
2021/01/27 11:39:35;;;;;;;25.08;16.45;;;128.60;1612.80;;;;;;4830511;29;20022;-80
2021/01/27 11:42:13;;;;;;;29.65;16.45;;;128.30;1612.80;;;;;;4743772;30;20528;-79
2021/01/27 11:44:39;;;;;;;32.58;18.08;;;128.20;1612.80;;;;;;4765060;30;20024;-79
2021/01/27 11:47:06;;;;;;;29.92;17.83;;;128.10;1612.80;;;;;;4757112;30;20044;-79
2021/01/27 11:49:37;;;;;;;26.27;16.48;;;128.10;1638.40;;;;;;4751651;30;20043;-78
2021/01/27 11:52:04;;;;;;;31.27;17.33;;;103.30;1612.80;;;;;;4744341;30;20067;-79
2021/01/27 11:54:31;;;;;;;33.88;19.50;;;128.00;1664.00;;;;;;4751832;30;20044;-79
2021/01/27 11:56:57;;;;;;;27.77;18.80;;;128.20;1638.40;;;;;;4749038;30;20029;-78
2021/01/27 11:59:25;;;;;;;26.25;18.45;;;128.00;1664.00;;;;;;4748947;30;20036;-79
2021/01/27 12:01:51;;;;;;;39.15;19.48;;;128.00;1664.00;;;;;;4766743;30;20040;-79
2021/01/27 12:04:19;;;;;;;21.98;15.65;;;103.30;1638.40;;;;;;4762049;30;20044;-79
2021/01/27 12:06:46;;;;;;;40.75;19.63;;;103.20;1612.80;;;;;;4740118;30;20032;-79
2021/01/27 12:09:19;;;;;;;24.20;16.05;;;103.20;1638.40;;;;;;4770787;30;20039;-79
2021/01/27 12:12:42;;;;;;;24.20;14.73;;;128.10;1638.40;;;;;;4761850;30;20031;-79
2021/01/27 12:15:54;;;;;;;46.60;18.95;;;128.20;1587.20;;;;;;4722291;30;20036;-80
2021/01/27 12:18:23;;;;;;;25.77;18.33;;;128.30;1612.80;;;;;;4715101;30;20037;-79
2021/01/27 12:20:50;;;;;;;32.20;17.48;;;128.00;1638.40;;;;;;4713170;30;20037;-78
2021/01/27 12:23:17;;;;;;;25.02;17.08;;;128.00;1638.40;;;;;;4712344;30;20037;-79
2021/01/27 12:25:43;;;;;;;25.70;15.95;;;128.60;1587.20;;;;;;4711146;30;20108;-79
2021/01/27 12:28:11;;;;;;;28.00;17.20;;;154.40;1484.80;;;;;;4711898;30;20529;-77
2021/01/27 12:30:40;;;;;;;26.00;17.05;;;154.20;1484.80;;;;;;4713976;30;20044;-79
2021/01/27 12:33:09;;;;;;;19.80;14.57;;;153.60;1536.00;;;;;;4725061;30;20080;-78
2021/01/27 12:35:40;;;;;;;24.50;15.77;;;128.70;1561.60;;;;;;4741384;30;20921;-78
2021/01/27 12:38:05;;;;;;;29.48;15.73;;;128.80;1536.00;;;;;;4723496;30;20087;-79
2021/01/27 12:40:47;;;;;;;25.25;16.75;;;154.40;1484.80;;;;;;4725107;30;20009;-79
2021/01/27 12:43:32;;;;;;;23.05;16.80;;;179.80;1382.40;;;;;;4735679;30;20041;-76
2021/01/27 12:46:01;;;;;;;22.80;15.80;;;154.20;1484.80;;;;;;4717660;30;20052;-77
2021/01/27 12:48:27;;;;;;;25.10;17.27;;;128.90;1510.40;;;;;;4739580;30;20109;-78
2021/01/27 12:50:52;;;;;;;27.50;17.75;;;128.30;1587.20;;;;;;4760900;29;20036;-77
2021/01/27 12:53:18;;;;;;;34.22;20.02;;;128.20;1612.80;;;;;;4790593;29;20478;-76
2021/01/27 12:55:44;;;;;;;39.40;20.17;;;128.30;1612.80;;;;;;4805246;29;20449;-77
2021/01/27 12:58:14;;;;;;;36.30;19.48;;;128.70;1587.20;;;;;;4814215;29;20042;-77
2021/01/27 13:00:40;;;;;;;31.40;19.65;;;128.40;1612.80;;;;;;4826218;29;20031;-79
2021/01/27 13:03:23;;;;;;;41.53;20.48;;;128.20;1612.80;;;;;;4825115;29;20080;-79
2021/01/27 13:06:20;;;;;;;29.00;17.67;;;128.10;1612.80;;;;;;4801549;29;20039;-79
2021/01/27 13:09:01;;;;;;;31.25;18.80;;;128.00;1612.80;;;;;;4804378;30;20074;-79
2021/01/27 13:11:29;;;;;;;27.40;16.85;;;103.30;1612.80;;;;;;4788891;30;20048;-79
2021/01/27 13:14:00;;;;;;;28.88;18.67;;;103.30;1638.40;;;;;;4809998;29;20103;-79
2021/01/27 13:16:50;;;;;;;29.48;19.55;;;103.20;1638.40;;;;;;4803812;30;20035;-79
2021/01/27 13:19:17;;;;;;;28.27;18.58;;;103.20;1664.00;;;;;;4762541;30;20051;-77
2021/01/27 13:21:43;;;;;;;30.83;19.08;;;103.20;1664.00;;;;;;4751625;30;20037;-77
2021/01/27 13:24:08;;;;;;;42.20;24.58;;;103.10;1664.00;;;;;;4750503;30;20082;-77
2021/01/27 13:26:34;;;;;;;33.30;20.52;;;103.10;1689.60;;;;;;4750732;30;20125;-76
2021/01/27 13:29:00;;;;;;;30.27;19.63;;;103.30;1664.00;;;;;;4765975;30;20048;-77
2021/01/27 13:31:26;;;;;;;37.70;19.42;;;128.40;1638.40;;;;;;4753304;30;20108;-77
2021/01/27 13:33:52;;;;;;;37.78;20.70;;;128.30;1638.40;;;;;;4767595;30;20063;-78
2021/01/27 13:36:18;;;;;;;34.35;20.20;;;128.20;1638.40;;;;;;4770977;30;20055;-78
2021/01/27 13:38:47;;;;;;;32.03;19.42;;;128.10;1638.40;;;;;;4764322;30;20131;-78
2021/01/27 13:41:17;;;;;;;32.92;20.95;;;128.00;1664.00;;;;;;4763183;30;20076;-78
2021/01/27 13:43:46;;;;;;;30.23;20.10;;;128.00;1689.60;;;;;;4781059;30;20035;-78
2021/01/27 13:46:12;;;;;;;35.40;20.10;;;128.00;1689.60;;;;;;4778832;30;20028;-78
2021/01/27 13:48:40;;;;;;;33.25;21.45;;;128.00;1715.20;;;;;;4779583;30;20035;-79
2021/01/27 13:51:07;;;;;;;35.83;20.92;;;103.30;1689.60;;;;;;4825077;29;20050;-78
2021/01/27 13:53:33;;;;;;;34.42;20.83;;;103.30;1689.60;;;;;;4818491;29;20060;-78
2021/01/27 13:55:59;;;;;;;31.83;19.75;;;103.30;1715.20;;;;;;4831841;29;20035;-78
2021/01/27 13:58:25;;;;;;;39.78;21.38;;;103.20;1715.20;;;;;;4815793;29;20414;-78
2021/01/27 14:00:51;;;;;;;44.13;23.17;;;103.20;1715.20;;;;;;4816227;29;20038;-78
2021/01/27 14:03:16;;;;;;;36.70;23.92;;;103.30;1715.20;;;;;;4815622;29;20040;-79
2021/01/27 14:05:44;;;;;;;43.30;25.08;;;103.30;1715.20;;;;;;4832483;29;20034;-78
2021/01/27 14:08:09;;;;;;;46.20;25.98;;;128.00;1715.20;;;;;;4815588;29;20030;-78
2021/01/27 14:10:38;;;;;;;36.25;22.80;;;128.20;1689.60;;;;;;4816585;29;20435;-78
2021/01/27 14:13:04;;;;;;;33.90;21.00;;;128.40;1689.60;;;;;;4814627;29;20088;-78
2021/01/27 14:15:32;;;;;;;39.63;23.45;;;128.50;1664.00;;;;;;4816434;29;20033;-78
2021/01/27 14:17:59;;;;;;;35.78;20.70;;;128.70;1664.00;;;;;;4815496;29;20483;-78
2021/01/27 14:20:30;;;;;;;39.97;20.55;;;128.90;1638.40;;;;;;4815194;29;20042;-79
2021/01/27 14:23:03;;;;;;;32.65;21.20;;;128.90;1612.80;;;;;;4837772;29;20015;-79
2021/01/27 14:25:59;;;;;;;31.67;19.88;;;128.70;1638.40;;;;;;4814479;29;20059;-79
2021/01/27 14:32:13;;;;;;;30.90;18.02;;;128.20;1664.00;;;;;;4789197;30;20109;-79
2021/01/27 14:34:46;;;;;;;34.13;21.58;;;128.30;1664.00;;;;;;4741600;30;20056;-78
2021/01/27 14:37:13;;;;;;;48.55;25.42;;;128.70;1664.00;;;;;;4742646;30;20048;-78
2021/01/27 14:39:39;;;;;;;33.10;23.20;;;128.80;1664.00;;;;;;4729462;30;20057;-78
2021/01/27 14:42:09;;;;;;;36.83;21.42;;;128.70;1664.00;;;;;;4744662;30;20033;-79
2021/01/27 14:44:55;;;;;;;37.33;22.45;;;128.50;1689.60;;;;;;4741403;30;20044;-77
2021/01/27 14:47:36;;;;;;;35.55;22.25;;;128.30;1689.60;;;;;;4726579;30;20051;-77
2021/01/27 14:50:05;;;;;;;32.92;21.13;;;128.30;1715.20;;;;;;4739401;30;20497;-77
2021/01/27 14:52:31;;;;;;;45.50;24.73;;;128.20;1740.80;;;;;;4741118;30;20048;-77
2021/01/27 14:55:01;;;;;;;36.47;23.88;;;128.10;1740.80;;;;;;4724512;30;20059;-78
2021/01/27 14:57:27;;;;;;;41.78;25.58;;;128.00;1715.20;;;;;;4722986;30;20102;-77
2021/01/27 14:59:53;;;;;;;29.98;20.30;;;103.30;1689.60;;;;;;4765188;30;20492;-78
2021/01/27 15:02:22;;;;;;;34.67;20.98;;;103.20;1740.80;;;;;;4777426;30;20433;-77
2021/01/27 15:04:50;;;;;;;34.10;20.58;;;103.10;1766.40;;;;;;4801065;30;20040;-79
2021/01/27 15:07:18;;;;;;;33.55;21.13;;;102.90;1792.00;;;;;;4797253;29;20091;-78
2021/01/27 15:09:45;;;;;;;33.33;20.08;;;102.80;1817.60;;;;;;4780026;30;20035;-78
2021/01/27 15:12:11;;;;;;;33.67;22.95;;;102.70;1817.60;;;;;;4806692;29;20501;-77
2021/01/27 15:14:37;;;;;;;33.45;21.35;;;102.60;1817.60;;;;;;4783446;29;20031;-78
2021/01/27 15:17:03;;;;;;;36.60;24.98;;;102.60;1843.20;;;;;;4808640;29;20121;-78
2021/01/27 15:19:29;;;;;;;43.78;25.98;;;102.50;1843.20;;;;;;4813250;29;20030;-78
2021/01/27 15:21:55;;;;;;;49.28;28.17;;;102.90;1868.80;;;;;;4811968;29;20031;-77
2021/01/27 15:24:21;;;;;;;48.25;28.55;;;102.40;1868.80;;;;;;4812785;29;20091;-78
2021/01/27 15:26:47;;;;;;;46.17;30.92;;;77.70;1894.40;;;;;;4812595;29;20391;-77
2021/01/27 15:29:13;;;;;;;41.05;28.05;;;77.60;1894.40;;;;;;4813645;29;20068;-78
2021/01/27 15:31:38;;;;;;;51.45;29.98;;;77.60;1894.40;;;;;;4827959;29;20798;-78
2021/01/27 15:34:04;;;;;;;43.90;26.77;;;77.50;1920.00;;;;;;4812642;29;20046;-78
2021/01/27 15:36:30;;;;;;;39.13;26.52;;;77.40;1945.60;;;;;;4830781;29;20053;-77
2021/01/27 15:38:56;;;;;;;42.80;25.20;;;77.30;1945.60;;;;;;4816910;29;20065;-77
2021/01/27 15:41:22;;;;;;;40.75;27.35;;;77.30;1945.60;;;;;;4835957;29;20036;-77
2021/01/27 15:43:48;;;;;;;47.15;30.60;;;77.30;1945.60;;;;;;4818651;29;20117;-78
2021/01/27 15:46:14;;;;;;;46.53;30.55;;;77.20;1971.20;;;;;;4828867;29;20035;-77
2021/01/27 15:48:40;;;;;;;39.25;26.75;;;77.20;1971.20;;;;;;4810949;29;20041;-78
2021/01/27 15:51:06;;;;;;;48.33;30.90;;;77.10;1996.80;;;;;;4811258;29;20069;-78
2021/01/27 15:53:32;;;;;;;45.60;29.40;;;77.00;1996.80;;;;;;4827508;29;20030;-78
2021/01/27 15:55:58;;;;;;;48.13;30.05;;;77.00;2022.40;;;;;;4810874;29;20475;-77
2021/01/27 15:58:24;;;;;;;50.17;30.45;;;77.00;2022.40;;;;;;4825480;29;20483;-77
2021/01/27 16:00:50;;;;;;;42.00;27.52;;;76.90;2022.40;;;;;;4809535;29;20037;-77
2021/01/27 16:03:16;;;;;;;42.42;24.63;;;76.90;2022.40;;;;;;4825790;29;20054;-78
2021/01/27 16:05:41;;;;;;;40.92;25.80;;;76.80;2022.40;;;;;;4825947;29;20087;-77
2021/01/27 16:08:07;;;;;;;41.70;28.17;;;76.80;2022.40;;;;;;4809776;29;20455;-77
2021/01/27 16:10:34;;;;;;;44.15;29.58;;;76.80;2022.40;;;;;;4824693;29;20041;-77
2021/01/27 16:13:01;;;;;;;46.30;29.15;;;52.10;2022.40;;;;;;4825832;29;20113;-78
2021/01/27 16:15:34;;;;;;;43.13;29.65;;;52.10;2048.00;;;;;;4825116;29;20031;-77
2021/01/27 16:18:00;;;;;;;49.50;29.88;;;52.00;2048.00;;;;;;4808640;29;20041;-77
2021/01/27 16:20:26;;;;;;;55.72;34.17;;;52.00;2048.00;;;;;;4828842;29;20022;-77
2021/01/27 16:22:53;;;;;;;50.70;33.20;;;51.90;2048.00;;;;;;4801609;29;20556;-77
2021/01/27 16:25:25;;;;;;;50.13;31.42;;;51.90;2048.00;;;;;;4825587;29;20034;-77
2021/01/27 16:27:51;;;;;;;47.88;28.70;;;51.90;2048.00;;;;;;4825114;29;20038;-77
2021/01/27 16:30:18;;;;;;;39.28;25.02;;;51.70;2048.00;;;;;;4825731;29;20500;-77
2021/01/27 16:32:44;;;;;;;46.42;27.70;;;51.70;2073.60;;;;;;4816370;29;20759;-77
2021/01/27 16:35:10;;;;;;;41.67;27.38;;;51.70;2073.60;;;;;;4819378;29;20112;-77
2021/01/27 16:37:36;;;;;;;47.65;28.02;;;51.70;2099.20;;;;;;4807807;29;20034;-77
2021/01/27 16:40:03;;;;;;;42.03;28.23;;;51.60;2124.80;;;;;;4805857;29;20042;-77
2021/01/27 16:42:28;;;;;;;47.83;28.23;;;51.60;2150.40;;;;;;4825123;29;20031;-77
2021/01/27 16:44:54;;;;;;;48.40;29.23;;;51.50;2150.40;;;;;;4809552;29;20045;-77
2021/01/27 16:47:20;;;;;;;39.03;25.17;;;51.90;2176.00;;;;;;4808608;29;20038;-77
2021/01/27 16:49:49;;;;;;;41.97;25.77;;;51.60;2176.00;;;;;;4815935;29;20066;-78
2021/01/27 16:52:41;;;;;;;54.28;31.67;;;51.50;2176.00;;;;;;4832410;29;20042;-79
2021/01/27 16:56:04;;;;;;;55.05;33.95;;;51.40;2201.60;;;;;;4824357;29;20049;-79
2021/01/27 16:58:55;;;;;;;66.20;38.60;;;51.40;2227.20;;;;;;4808436;29;20019;-79
2021/01/27 17:01:40;;;;;;;79.90;45.72;;;51.30;2227.20;;;;;;4791706;30;20031;-80
2021/01/27 17:04:39;;;;;;;71.50;41.92;;;51.20;2227.20;;;;;;4802700;30;20059;-80
2021/01/27 17:07:09;;;;;;;60.50;32.72;;;51.30;2227.20;;;;;;4793491;30;20031;-79
2021/01/27 17:09:37;;;;;;;48.58;29.38;;;51.30;2227.20;;;;;;4789668;30;20051;-79
2021/01/27 17:12:04;;;;;;;52.92;31.77;;;51.30;2227.20;;;;;;4764254;30;20056;-78
2021/01/27 17:14:34;;;;;;;56.35;34.83;;;51.40;2227.20;;;;;;4781841;30;20119;-79
2021/01/27 17:17:38;;;;;;;65.07;38.70;;;51.30;2227.20;;;;;;4794894;29;20027;-80
2021/01/27 17:20:54;;;;;;;88.18;47.72;;;51.30;2227.20;;;;;;4756949;30;20056;-79
2021/01/27 17:23:21;;;;;;;88.20;46.78;;;51.20;2227.20;;;;;;4744561;30;20041;-78
2021/01/27 17:25:47;;;;;;;81.75;50.55;;;51.30;2227.20;;;;;;4735592;30;20115;-77
2021/01/27 17:28:13;;;;;;;85.22;51.00;;;51.30;2227.20;;;;;;4737618;30;20070;-77
2021/01/27 17:30:38;;;;;;;83.32;49.75;;;51.30;2227.20;;;;;;4736694;30;20037;-78
2021/01/27 17:33:14;;;;;;;75.70;47.85;;;51.20;2227.20;;;;;;4739588;30;20103;-77
2021/01/27 17:35:40;;;;;;;83.05;47.58;;;51.20;2227.20;;;;;;4755475;30;20556;-78
2021/01/27 17:38:06;;;;;;;81.53;48.00;;;51.20;2227.20;;;;;;4757551;30;20036;-77
2021/01/27 17:40:32;;;;;;;88.85;51.78;;;51.20;2227.20;;;;;;4753423;30;20126;-78
2021/01/27 17:43:03;;;;;;;91.28;52.25;;;51.20;2227.20;;;;;;4753274;30;20582;-77
2021/01/27 17:45:31;;;;;;;79.70;49.08;;;51.20;2227.20;;;;;;4752585;30;20429;-78
2021/01/27 17:47:57;;;;;;;74.03;43.13;;;51.20;2227.20;;;;;;4768089;30;20115;-76
2021/01/27 17:50:25;;;;;;;67.30;41.50;;;51.20;2227.20;;;;;;4784129;29;20121;-77
2021/01/27 17:52:51;;;;;;;67.30;39.90;;;51.20;2227.20;;;;;;4823888;29;20031;-77
2021/01/27 17:55:22;;;;;;;61.60;34.75;;;51.20;2227.20;;;;;;4818191;29;20030;-76
2021/01/27 17:57:48;;;;;;;53.88;35.80;;;51.20;2227.20;;;;;;4815690;29;20110;-76
2021/01/27 18:00:19;;;;;;;51.85;33.10;;;51.20;2227.20;;;;;;4818370;29;20034;-75
2021/01/27 18:02:45;;;;;;;57.40;36.78;;;51.20;2227.20;;;;;;4787818;29;20492;-76
2021/01/27 18:05:11;;;;;;;51.78;35.55;;;26.50;2201.60;;;;;;4803244;29;20034;-75
2021/01/27 18:07:37;;;;;;;50.22;32.13;;;26.50;2201.60;;;;;;4823593;29;20033;-75
2021/01/27 18:10:05;;;;;;;55.53;32.55;;;26.40;2201.60;;;;;;4805993;29;20050;-75
2021/01/27 18:12:32;;;;;;;55.08;35.90;;;26.40;2201.60;;;;;;4805201;29;20039;-75
2021/01/27 18:14:57;;;;;;;56.05;37.55;;;26.50;2201.60;;;;;;4788764;29;20031;-75
2021/01/27 18:17:23;;;;;;;51.10;30.80;;;26.40;2201.60;;;;;;4805309;29;20045;-75
2021/01/27 18:19:49;;;;;;;47.00;32.33;;;26.40;2201.60;;;;;;4814527;29;20051;-77
2021/01/27 18:22:15;;;;;;;52.42;34.78;;;26.30;2201.60;;;;;;4807260;29;20402;-77
2021/01/27 18:24:40;;;;;;;50.53;30.17;;;26.40;2201.60;;;;;;4806035;29;20042;-76
2021/01/27 18:27:06;;;;;;;52.88;31.20;;;26.40;2201.60;;;;;;4819369;29;20039;-76
2021/01/27 18:29:33;;;;;;;47.20;31.05;;;26.40;2201.60;;;;;;4792115;29;20051;-77
2021/01/27 18:31:59;;;;;;;64.18;39.75;;;26.40;2201.60;;;;;;4811355;29;20083;-77
2021/01/27 18:34:25;;;;;;;52.90;33.55;;;26.40;2201.60;;;;;;4807268;29;20034;-77
2021/01/27 18:36:51;;;;;;;51.03;33.70;;;26.40;2201.60;;;;;;4797622;29;20047;-77
2021/01/27 18:39:17;;;;;;;56.67;33.58;;;26.40;2201.60;;;;;;4807091;29;20095;-76
2021/01/27 18:41:43;;;;;;;53.38;33.00;;;26.40;2201.60;;;;;;4823170;29;20031;-77
2021/01/27 18:44:10;;;;;;;47.10;31.40;;;26.40;2201.60;;;;;;4823325;29;20070;-77
2021/01/27 18:46:41;;;;;;;63.28;40.03;;;26.40;2176.00;;;;;;4806486;29;20774;-76
2021/01/27 18:49:07;;;;;;;58.97;40.72;;;26.40;2201.60;;;;;;4806548;29;20125;-77
2021/01/27 18:51:34;;;;;;;61.17;40.58;;;26.40;2201.60;;;;;;4807036;29;20034;-77
2021/01/27 18:54:04;;;;;;;50.22;32.90;;;26.30;2201.60;;;;;;4825551;29;20030;-76
2021/01/27 18:56:30;;;;;;;59.55;34.63;;;26.40;2201.60;;;;;;4823609;29;20060;-77
2021/01/27 18:58:56;;;;;;;63.75;38.67;;;26.30;2201.60;;;;;;4814412;29;20130;-77
2021/01/27 19:01:22;;;;;;;60.20;41.33;;;26.30;2201.60;;;;;;4805946;29;20106;-77
2021/01/27 19:03:48;;;;;;;54.75;35.08;;;26.30;2201.60;;;;;;4804709;29;20679;-77
2021/01/27 19:06:16;;;;;;;50.78;30.52;;;26.40;2201.60;;;;;;4788826;29;20038;-76
2021/01/27 19:08:42;;;;;;;36.05;24.92;;;26.20;2201.60;;;;;;4804729;29;20119;-76
2021/01/27 19:11:08;;;;;;;41.55;26.23;;;26.20;2201.60;;;;;;4803102;29;20042;-75
2021/01/27 19:13:34;;;;;;;41.20;26.33;;;26.20;2201.60;;;;;;4823039;29;20483;-76
2021/01/27 19:15:59;;;;;;;41.80;25.80;;;26.10;2201.60;;;;;;4807295;29;20054;-77
2021/01/27 19:18:26;;;;;;;50.35;29.90;;;26.10;2201.60;;;;;;4815737;29;20050;-78
2021/01/27 19:20:51;;;;;;;39.15;26.17;;;26.10;2201.60;;;;;;4818019;29;20037;-78
2021/01/27 19:23:17;;;;;;;39.47;26.77;;;26.10;2201.60;;;;;;4808663;29;20406;-77
2021/01/27 19:25:43;;;;;;;42.35;27.48;;;26.10;2201.60;;;;;;4807973;29;20039;-76
2021/01/27 19:28:09;;;;;;;53.47;28.88;;;26.10;2201.60;;;;;;4808858;29;20031;-77
2021/01/27 19:30:36;;;;;;;45.20;28.45;;;26.00;2201.60;;;;;;4823540;29;20078;-77
2021/01/27 19:33:08;;;;;;;49.72;32.17;;;26.00;2201.60;;;;;;4810883;29;20047;-78
2021/01/27 19:35:36;;;;;;;48.22;31.80;;;25.90;2201.60;;;;;;4829089;29;20051;-78
2021/01/27 19:38:03;;;;;;;52.72;32.47;;;25.90;2201.60;;;;;;4814024;29;20448;-78
2021/01/27 19:40:29;;;;;;;55.90;34.45;;;25.90;2201.60;;;;;;4814408;29;20030;-78
2021/01/27 19:42:57;;;;;;;46.95;28.05;;;25.90;2201.60;;;;;;4828998;29;20049;-78
2021/01/27 19:45:41;;;;;;;56.92;35.08;;;25.90;2201.60;;;;;;4815978;29;20034;-79
2021/01/27 19:48:10;;;;;;;51.35;32.63;;;25.90;2201.60;;;;;;4806884;30;20039;-79
2021/01/27 19:50:55;;;;;;;58.42;32.83;;;25.90;2201.60;;;;;;4788774;30;20536;-79
2021/01/27 19:53:40;;;;;;;58.67;35.00;;;25.90;2201.60;;;;;;4796110;30;20051;-80
2021/01/27 19:56:36;;;;;;;52.58;33.50;;;25.80;2201.60;;;;;;4800550;30;20039;-80
2021/01/27 19:59:12;;;;;;;58.53;33.22;;;25.80;2201.60;;;;;;4770088;30;20032;-78
2021/01/27 20:01:46;;;;;;;;;;;25.80;2201.60;;;;;;4775161;30;20040;-79
2021/01/27 20:04:18;;;;;;;49.75;31.30;;;25.80;2201.60;;;;;;4805149;29;19916;-80
2021/01/27 20:07:25;;;;;;;57.33;31.92;;;25.80;2201.60;;;;;;4808339;30;20036;-80
2021/01/27 20:10:01;;;;;;;59.28;32.90;;;25.80;2201.60;;;;;;4774720;30;20028;-81
2021/01/27 20:13:04;;;;;;;55.38;33.97;;;25.80;2201.60;;;;;;4774928;30;20060;-84
2021/01/27 20:16:30;;;;;;;54.55;31.73;;;25.80;2201.60;;;;;;4773981;30;20047;-81
2021/01/27 20:22:50;;;;;;;54.95;32.63;;;25.80;2201.60;;;;;;4758920;30;20039;-81
2021/01/27 20:25:48;;;;;;;48.13;30.23;;;25.80;2201.60;;;;;;4763735;30;20561;-78
2021/01/27 20:28:41;;;;;;;56.65;32.40;;;25.80;2201.60;;;;;;4772903;30;20032;-80
2021/01/27 20:31:20;;;;;;;50.63;30.80;;;25.80;2201.60;;;;;;4764972;29;20039;-81
2021/01/27 20:34:38;;;;;;;58.15;31.95;;;25.80;2201.60;;;;;;4718187;30;20045;-81
2021/01/27 20:45:36;;;;;;;49.35;30.30;;;25.80;2201.60;;;;;;4747100;29;20060;-82
